Time;durP1;ratioP1;P1;durP2;ratioP2;P2;SDS_P1;SDS_P2;PMS_P1;PMS_P2;Temp;Humidity;BMP_temperature;BMP_pressure;BME280_temperature;BME280_humidity;BME280_pressure;Samples;Min_cycle;Max_cycle;Signal;HPM_P1;HPM_P2
2021/12/17 00:05:01;;;;;;;22.92;16.20;;;;;;;8.91;90.23;101441.22;5115556;27;20227;-75
2021/12/17 00:07:30;;;;;;;22.27;15.95;;;;;;;8.89;91.31;101441.28;5117393;27;20236;-75
2021/12/17 00:10:00;;;;;;;21.38;15.70;;;;;;;8.90;91.28;101442.16;5136116;27;20200;-75
2021/12/17 00:12:28;;;;;;;20.00;15.13;;;;;;;8.98;91.36;101446.44;5136394;27;20701;-75
2021/12/17 00:14:56;;;;;;;21.73;14.80;;;;;;;8.90;91.82;101440.34;5135842;27;20187;-75
2021/12/17 00:17:28;;;;;;;20.45;15.57;;;;;;;9.07;91.54;101447.16;5135110;27;20241;-75
2021/12/17 00:20:23;;;;;;;22.30;15.60;;;;;;;8.96;91.70;101439.34;5115838;28;20187;-74
2021/12/17 00:50:27;;;;;;;18.17;12.95;;;;;;;9.15;92.73;101440.66;5118720;27;20195;-74
2021/12/17 00:52:55;;;;;;;22.40;14.48;;;;;;;9.04;93.04;101436.47;5135572;27;20278;-74
2021/12/17 00:55:22;;;;;;;19.90;13.05;;;;;;;9.12;92.69;101440.75;5135534;27;20199;-75
2021/12/17 00:57:48;;;;;;;17.33;12.43;;;;;;;9.13;92.79;101422.81;5131475;27;20279;-74
2021/12/17 01:00:19;;;;;;;15.85;11.82;;;;;;;8.97;93.84;101430.34;5134011;27;20199;-74
2021/12/17 01:02:46;;;;;;;15.18;11.60;;;;;;;8.96;94.23;101433.97;5135495;27;20702;-75
2021/12/17 01:05:15;;;;;;;15.63;11.52;;;;;;;9.02;93.98;101427.56;5135118;27;20198;-75
2021/12/17 01:07:46;;;;;;;15.70;11.45;;;;;;;8.95;94.05;101422.34;5133077;27;20195;-75
2021/12/17 01:10:19;;;;;;;16.77;13.75;;;;;;;8.97;94.12;101424.97;5135306;27;20289;-75
2021/12/17 01:12:45;;;;;;;15.80;12.00;;;;;;;8.88;94.72;101425.19;5131012;27;20189;-75
2021/12/17 01:15:16;;;;;;;16.10;12.27;;;;;;;8.94;94.61;101423.25;5114725;28;20208;-76
2021/12/17 01:17:44;;;;;;;15.75;12.45;;;;;;;8.98;94.22;101419.56;5115727;27;20521;-75
2021/12/17 01:23:10;;;;;;;17.02;12.40;;;;;;;9.05;94.28;101424.81;5113909;28;20191;-75
2021/12/17 01:25:53;;;;;;;20.55;11.27;;;;;;;9.16;92.96;101420.94;5114526;28;20618;-75
2021/12/17 01:36:37;;;;;;;11.10;8.55;;;;;;;8.88;93.94;101423.38;5094860;27;20228;-75
2021/12/17 01:44:40;;;;;;;11.57;8.70;;;;;;;9.01;93.55;101425.81;5130590;27;20186;-75
2021/12/17 01:47:10;;;;;;;10.70;8.95;;;;;;;8.92;94.93;101424.19;5134704;27;20636;-75
2021/12/17 02:00:49;;;;;;;8.75;7.60;;;;;;;9.07;93.37;101420.28;5113637;28;20611;-74
2021/12/17 02:03:16;;;;;;;13.07;8.80;;;;;;;8.86;94.53;101417.13;5115907;27;20223;-75
2021/12/17 02:05:44;;;;;;;10.20;8.77;;;;;;;8.88;95.68;101411.75;5133484;27;20273;-75
2021/12/17 02:08:11;;;;;;;11.70;9.25;;;;;;;8.99;94.89;101412.38;5134093;27;20666;-75
2021/12/17 02:30:05;;;;;;;11.15;9.02;;;;;;;9.00;94.32;101397.13;5113840;27;20712;-75
2021/12/17 02:32:35;;;;;;;10.45;8.10;;;;;;;8.88;95.73;101401.00;5117756;27;20567;-75
2021/12/17 02:35:25;;;;;;;8.45;7.22;;;;;;;9.02;95.79;101389.94;5112664;28;20204;-75
2021/12/17 02:37:55;;;;;;;9.77;7.85;;;;;;;9.05;94.63;101392.56;5113153;28;20539;-76
2021/12/17 02:46:01;;;;;;;8.45;7.30;;;;;;;9.10;95.12;101387.97;5110600;28;20196;-75
2021/12/17 02:48:28;;;;;;;8.30;7.50;;;;;;;8.97;95.48;101384.66;5099136;28;20200;-75
2021/12/17 02:50:58;;;;;;;10.10;7.97;;;;;;;9.07;94.81;101383.53;5099855;28;20199;-75
2021/12/17 02:53:27;;;;;;;9.27;7.70;;;;;;;9.06;95.14;101391.63;5123058;27;20206;-75
2021/12/17 02:55:56;;;;;;;9.93;7.70;;;;;;;9.05;94.71;101384.50;5133323;27;20552;-74
2021/12/17 02:58:25;;;;;;;9.60;7.90;;;;;;;9.07;95.21;101385.34;5133316;27;20193;-75
2021/12/17 03:00:53;;;;;;;9.30;7.75;;;;;;;9.17;94.22;101378.81;5133251;27;20179;-75
2021/12/17 03:03:21;;;;;;;9.20;7.60;;;;;;;9.03;95.00;101380.97;5130610;27;20196;-75
2021/12/17 03:05:49;;;;;;;9.80;8.05;;;;;;;8.97;96.29;101368.53;5133161;27;20274;-74
2021/12/17 03:08:17;;;;;;;10.95;8.10;;;;;;;9.01;96.27;101374.75;5133220;27;20233;-76
2021/12/17 03:10:48;;;;;;;11.95;8.80;;;;;;;9.08;95.66;101379.94;5132708;27;20246;-75
2021/12/17 03:13:15;;;;;;;12.55;9.32;;;;;;;9.01;96.23;101370.25;5127564;27;20219;-75
2021/12/17 03:15:48;;;;;;;10.23;7.70;;;;;;;9.14;95.17;101373.53;5132905;27;20590;-74
2021/12/17 03:23:43;;;;;;;9.63;8.25;;;;;;;9.09;95.27;101367.38;5131472;27;20193;-76
2021/12/17 03:26:13;;;;;;;11.32;8.65;;;;;;;9.01;96.05;101369.38;5132942;27;20293;-74
2021/12/17 03:28:42;;;;;;;10.40;8.65;;;;;;;9.13;95.39;101372.63;5132432;27;20186;-74
2021/12/17 03:31:10;;;;;;;10.93;8.68;;;;;;;9.11;95.13;101373.59;5132309;27;20227;-74
2021/12/17 03:33:42;;;;;;;12.57;9.75;;;;;;;8.83;97.60;101374.25;5126072;27;20681;-75
2021/12/17 03:36:11;;;;;;;10.38;8.48;;;;;;;8.96;97.81;101373.03;5112233;28;20229;-74
2021/12/17 03:38:38;;;;;;;13.93;10.25;;;;;;;8.88;98.59;101371.44;5124293;28;20200;-74
2021/12/17 03:41:14;;;;;;;12.80;9.95;;;;;;;9.03;98.10;101375.59;5132276;28;20211;-74
2021/12/17 03:43:42;;;;;;;11.40;9.73;;;;;;;9.08;96.99;101377.25;5119440;28;20641;-74
2021/12/17 03:46:09;;;;;;;11.30;9.88;;;;;;;9.02;97.69;101371.13;5112079;28;20202;-75
2021/12/17 03:48:38;;;;;;;12.85;10.23;;;;;;;8.96;98.41;101370.34;5111733;28;20187;-74
2021/12/17 03:51:11;;;;;;;14.90;11.10;;;;;;;9.01;98.56;101370.25;5111960;28;20592;-75
2021/12/17 03:53:38;;;;;;;14.93;11.43;;;;;;;9.01;99.67;101374.75;5122745;28;20191;-75
2021/12/17 03:56:05;;;;;;;14.73;10.38;;;;;;;9.11;98.47;101374.50;5132803;28;20982;-75
2021/12/17 03:58:32;;;;;;;13.13;9.52;;;;;;;9.10;97.55;101372.72;5132762;28;20798;-75
2021/12/17 04:01:00;;;;;;;12.07;9.55;;;;;;;9.06;98.08;101364.75;5132361;28;20321;-75
2021/12/17 04:03:26;;;;;;;12.98;9.30;;;;;;;9.08;99.25;101373.69;5121830;28;20198;-76
2021/12/17 04:05:53;;;;;;;14.90;10.68;;;;;;;9.03;98.81;101378.28;5111784;28;20203;-74
2021/12/17 04:08:19;;;;;;;13.43;10.95;;;;;;;8.87;99.80;101375.06;5111654;28;20204;-75
2021/12/17 04:10:49;;;;;;;14.23;11.13;;;;;;;9.02;99.52;101371.13;5112041;28;20260;-74
2021/12/17 04:13:28;;;;;;;16.52;12.20;;;;;;;8.74;100.00;101369.94;5112399;28;20194;-74
2021/12/17 04:15:58;;;;;;;17.83;12.52;;;;;;;8.84;100.00;101367.06;5111882;28;20187;-74
2021/12/17 04:18:27;;;;;;;16.45;11.32;;;;;;;8.79;100.00;101356.41;5111721;28;20380;-76
2021/12/17 04:20:54;;;;;;;16.60;11.25;;;;;;;9.03;99.60;101365.72;5113672;28;20203;-76
2021/12/17 04:23:21;;;;;;;15.45;11.48;;;;;;;9.14;97.46;101368.16;5131993;28;20204;-74
2021/12/17 04:25:49;;;;;;;14.55;11.25;;;;;;;9.28;96.04;101362.44;5131978;28;20194;-74
2021/12/17 04:28:16;;;;;;;16.70;11.90;;;;;;;9.26;95.29;101366.97;5122529;28;20196;-76
2021/12/17 04:30:44;;;;;;;14.38;11.23;;;;;;;9.24;94.40;101364.31;5111480;28;21003;-75
2021/12/17 04:33:12;;;;;;;13.35;10.50;;;;;;;9.16;94.46;101360.94;5121202;27;20195;-75
2021/12/17 04:35:40;;;;;;;12.18;10.15;;;;;;;9.18;94.16;101360.00;5136150;27;20274;-74
2021/12/17 04:38:08;;;;;;;17.42;15.38;;;;;;;9.23;93.40;101350.94;5128274;27;20744;-75
2021/12/17 04:40:37;;;;;;;11.63;9.82;;;;;;;9.19;92.58;101359.06;5115319;28;20649;-75
2021/12/17 04:43:15;;;;;;;16.30;10.65;;;;;;;9.08;93.23;101357.56;5115447;28;20188;-74
2021/12/17 04:45:47;;;;;;;15.93;11.75;;;;;;;9.07;93.30;101353.09;5115422;28;20207;-75
2021/12/17 04:59:14;;;;;;;11.00;8.10;;;;;;;8.83;89.29;101346.50;5133584;27;20688;-76
2021/12/17 05:01:40;;;;;;;11.82;9.50;;;;;;;8.83;89.44;101341.13;5135268;27;20203;-75
2021/12/17 05:04:07;;;;;;;17.38;10.75;;;;;;;8.83;89.49;101336.63;5135481;27;20562;-75
2021/12/17 05:06:35;;;;;;;12.40;9.13;;;;;;;9.01;87.33;101353.25;5135483;27;20273;-75
2021/12/17 05:09:08;;;;;;;7.93;6.22;;;;;;;8.98;85.71;101347.03;5120771;27;20624;-74
2021/12/17 05:18:14;;;;;;;9.45;6.40;;;;;;;9.02;84.16;101346.94;5114930;28;20264;-75
2021/12/17 05:19:58;;;;;;;7.57;6.47;;;;;;;9.00;82.74;101351.47;5114358;28;20210;-74
2021/12/17 05:22:28;;;;;;;9.35;6.97;;;;;;;8.82;82.36;101351.00;5118112;27;20183;-75
2021/12/17 05:24:55;;;;;;;7.60;6.80;;;;;;;8.89;82.88;101352.63;5135045;27;20564;-75
2021/12/17 05:27:21;;;;;;;7.28;6.35;;;;;;;8.97;81.65;101352.44;5132230;27;20649;-74
2021/12/17 05:29:48;;;;;;;7.25;6.22;;;;;;;9.03;81.29;101343.34;5113589;28;20318;-75
2021/12/17 05:32:15;;;;;;;8.18;5.65;;;;;;;9.02;81.31;101344.25;5114099;28;20664;-75
2021/12/17 05:34:41;;;;;;;11.27;8.90;;;;;;;9.01;81.29;101355.94;5114240;28;20181;-76
2021/12/17 05:37:08;;;;;;;8.05;6.82;;;;;;;9.08;80.41;101349.50;5113842;27;20208;-76
2021/12/17 05:39:36;;;;;;;8.15;7.28;;;;;;;8.92;81.09;101346.28;5134519;27;20203;-74
2021/12/17 05:42:04;;;;;;;7.50;6.25;;;;;;;8.89;81.14;101349.94;5134575;27;20705;-74
2021/12/17 05:44:31;;;;;;;7.72;6.93;;;;;;;8.75;81.48;101352.94;5134023;27;20212;-74
2021/12/17 05:46:57;;;;;;;8.77;6.65;;;;;;;8.96;81.33;101353.34;5134083;27;20203;-75
2021/12/17 05:49:26;;;;;;;8.20;7.15;;;;;;;8.89;81.09;101344.56;5132770;27;20307;-75
2021/12/17 05:51:54;;;;;;;10.40;6.80;;;;;;;9.00;80.42;101347.00;5134516;27;20648;-75
2021/12/17 05:54:22;;;;;;;8.25;6.53;;;;;;;9.12;79.75;101353.88;5133689;27;20277;-75
2021/12/17 05:56:52;;;;;;;11.90;7.00;;;;;;;9.04;79.53;101354.03;5123025;27;20941;-75
2021/12/17 05:59:18;;;;;;;7.82;7.03;;;;;;;8.97;80.04;101361.34;5133875;27;20187;-75
2021/12/17 06:01:45;;;;;;;9.50;7.10;;;;;;;9.01;79.98;101359.50;5134189;27;20199;-75
2021/12/17 06:04:12;;;;;;;8.57;7.00;;;;;;;8.91;79.69;101366.00;5134205;27;20573;-75
2021/12/17 06:06:41;;;;;;;8.85;7.35;;;;;;;8.83;79.64;101368.88;5133716;27;20212;-75
2021/12/17 06:09:09;;;;;;;7.72;6.80;;;;;;;8.80;79.92;101360.88;5133764;27;20636;-74
2021/12/17 06:11:37;;;;;;;10.23;7.50;;;;;;;8.90;79.67;101373.19;5134213;27;20655;-75
2021/12/17 06:14:05;;;;;;;8.15;6.72;;;;;;;8.76;79.50;101369.94;5133874;27;20198;-75
2021/12/17 06:16:33;;;;;;;8.27;7.05;;;;;;;8.79;79.24;101374.34;5133156;27;20280;-75
2021/12/17 06:19:00;;;;;;;8.70;7.50;;;;;;;8.51;79.35;101364.22;5133570;27;20289;-75
2021/12/17 06:21:27;;;;;;;8.35;6.68;;;;;;;8.63;78.74;101376.47;5133792;27;20199;-76
2021/12/17 06:23:54;;;;;;;13.23;8.00;;;;;;;8.43;79.35;101371.53;5133386;27;20202;-76
2021/12/17 06:26:20;;;;;;;10.35;7.65;;;;;;;8.35;79.95;101371.69;5153705;27;20222;-76
2021/12/17 06:28:50;;;;;;;9.35;7.47;;;;;;;8.45;79.93;101370.59;5154067;27;20607;-74
2021/12/17 06:31:18;;;;;;;11.90;7.97;;;;;;;8.38;79.58;101373.41;5153467;27;20227;-74
2021/12/17 06:33:45;;;;;;;8.43;7.03;;;;;;;8.37;79.74;101380.59;5153249;27;20215;-74
2021/12/17 06:36:11;;;;;;;10.50;8.65;;;;;;;8.43;79.42;101372.41;5153144;27;20199;-75
2021/12/17 06:38:38;;;;;;;10.38;8.90;;;;;;;8.40;80.19;101379.63;5153396;27;20225;-75
2021/12/17 06:41:05;;;;;;;13.15;8.85;;;;;;;8.45;80.06;101370.59;5112312;28;20275;-74
2021/12/17 06:43:37;;;;;;;13.23;10.77;;;;;;;8.41;79.86;101373.38;5112520;28;20286;-74
2021/12/17 06:46:16;;;;;;;12.13;9.65;;;;;;;8.31;79.80;101373.53;5111927;28;20251;-77
2021/12/17 06:48:46;;;;;;;11.20;9.60;;;;;;;8.03;80.84;101381.25;5115554;27;20533;-76
2021/12/17 06:57:53;;;;;;;11.77;8.57;;;;;;;8.11;80.88;101383.78;5152840;27;20187;-75
2021/12/17 07:00:17;;;;;;;14.27;9.45;;;;;;;8.02;81.54;101384.84;5111914;28;20202;-75
2021/12/17 07:10:57;;;;;;;7.65;6.65;;;;;;;7.93;81.72;101399.28;5132289;27;20635;-75
2021/12/17 07:22:16;;;;;;;9.85;8.45;;;;;;;7.69;82.97;101407.81;5111814;27;20635;-76
2021/12/17 07:28:03;;;;;;;10.43;8.55;;;;;;;7.81;82.68;101410.25;5132948;27;20184;-76
2021/12/17 07:33:09;;;;;;;12.07;9.20;;;;;;;7.80;83.43;101413.88;5088592;28;20202;-74
2021/12/17 07:41:11;;;;;;;11.38;9.35;;;;;;;8.26;80.55;101413.00;5121218;27;20197;-76
2021/12/17 07:43:39;;;;;;;11.35;9.45;;;;;;;8.15;80.75;101415.88;5132220;28;20546;-75
2021/12/17 07:46:08;;;;;;;12.23;9.70;;;;;;;8.07;80.90;101412.47;5131823;28;20191;-76
2021/12/17 07:48:35;;;;;;;12.32;9.65;;;;;;;8.09;80.78;101421.34;5132408;27;20640;-76
2021/12/17 07:51:04;;;;;;;14.55;10.07;;;;;;;7.92;81.27;101419.00;5131611;28;20190;-74
2021/12/17 07:53:33;;;;;;;12.05;10.00;;;;;;;7.97;81.38;101424.28;5131633;28;20636;-74
2021/12/17 07:56:02;;;;;;;15.40;11.38;;;;;;;8.03;81.43;101424.19;5132004;28;20722;-76
2021/12/17 07:58:29;;;;;;;17.05;11.30;;;;;;;8.05;81.59;101425.03;5131812;28;20211;-76
2021/12/17 08:00:56;;;;;;;13.93;11.38;;;;;;;8.06;81.46;101426.78;5131519;28;20206;-74
2021/12/17 08:03:22;;;;;;;14.65;11.07;;;;;;;8.22;81.33;101435.44;5131795;28;20620;-74
2021/12/17 08:05:50;;;;;;;15.15;11.35;;;;;;;8.34;80.15;101431.63;5131871;28;20220;-75
2021/12/17 08:08:17;;;;;;;14.02;10.35;;;;;;;8.48;79.37;101428.69;5133969;27;20246;-75
2021/12/17 08:10:47;;;;;;;19.52;11.90;;;;;;;8.42;79.17;101435.09;5136028;27;20179;-74
2021/12/17 08:13:19;;;;;;;15.48;11.98;;;;;;;8.41;78.88;101445.84;5136074;27;20642;-74
2021/12/17 08:15:58;;;;;;;24.02;13.20;;;;;;;8.39;79.57;101445.88;5134913;27;20194;-75
2021/12/17 08:18:49;;;;;;;17.55;13.40;;;;;;;8.51;78.83;101448.31;5135620;27;20210;-75
2021/12/17 08:27:10;;;;;;;15.68;12.68;;;;;;;8.53;78.41;101425.03;5071977;28;20560;-75
2021/12/17 08:29:55;;;;;;;17.25;12.98;;;;;;;8.57;78.58;101441.97;5108036;27;20232;-74
2021/12/17 08:32:22;;;;;;;14.65;11.30;;;;;;;8.65;77.55;101434.63;5114876;28;20188;-74
2021/12/17 08:34:48;;;;;;;20.42;13.55;;;;;;;8.67;77.94;101442.66;5114520;28;20209;-75
2021/12/17 08:37:15;;;;;;;16.70;12.25;;;;;;;8.66;77.95;101440.88;5118054;27;20187;-76
2021/12/17 08:39:42;;;;;;;13.23;11.80;;;;;;;8.61;78.31;101445.44;5135124;27;20226;-75
2021/12/17 08:42:10;;;;;;;15.55;11.90;;;;;;;8.62;78.35;101442.75;5134791;27;20205;-75
2021/12/17 08:44:36;;;;;;;13.70;10.18;;;;;;;8.33;78.86;101444.16;5135008;27;20205;-75
2021/12/17 08:47:05;;;;;;;13.73;10.63;;;;;;;8.40;78.91;101438.69;5135295;27;20210;-76
2021/12/17 08:49:32;;;;;;;12.50;10.18;;;;;;;8.21;79.59;101439.06;5134862;27;20228;-76
2021/12/17 08:51:58;;;;;;;15.10;12.18;;;;;;;8.13;80.61;101435.63;5135034;27;20322;-74
2021/12/17 08:54:26;;;;;;;17.40;10.65;;;;;;;8.19;80.27;101434.63;5135387;27;20182;-75
2021/12/17 08:56:52;;;;;;;16.95;10.80;;;;;;;8.11;79.94;101435.63;5135144;27;20210;-75
2021/12/17 08:59:21;;;;;;;12.05;10.57;;;;;;;8.08;80.59;101442.88;5135374;27;20207;-74
2021/12/17 09:01:48;;;;;;;13.90;11.05;;;;;;;7.98;80.66;101444.81;5134324;27;20195;-75
2021/12/17 09:04:15;;;;;;;14.18;10.32;;;;;;;8.11;80.86;101438.31;5135329;27;20539;-74
2021/12/17 09:06:42;;;;;;;13.07;10.40;;;;;;;8.01;81.00;101441.22;5154726;27;20194;-75
2021/12/17 09:09:09;;;;;;;14.02;11.05;;;;;;;8.12;80.61;101437.41;5155510;27;20199;-75
2021/12/17 09:11:37;;;;;;;17.98;9.65;;;;;;;8.29;79.62;101447.81;5148360;27;20673;-75
2021/12/17 09:14:05;;;;;;;18.20;10.85;;;;;;;8.14;80.33;101443.66;5134293;27;20216;-76
2021/12/17 09:16:33;;;;;;;15.23;11.13;;;;;;;7.96;81.08;101449.34;5134186;27;20229;-76
2021/12/17 09:19:00;;;;;;;9.93;8.88;;;;;;;8.09;79.81;101439.25;5133696;27;20210;-74
2021/12/17 09:21:26;;;;;;;12.82;9.05;;;;;;;8.06;79.65;101442.91;5132875;27;20628;-75
2021/12/17 09:23:53;;;;;;;11.57;8.85;;;;;;;8.17;79.68;101448.06;5113475;27;20186;-75
2021/12/17 09:26:22;;;;;;;14.57;10.23;;;;;;;8.22;79.65;101451.53;5123588;27;20656;-75
2021/12/17 09:28:49;;;;;;;15.63;10.50;;;;;;;8.23;79.51;101447.97;5133359;27;20267;-75
2021/12/17 09:31:16;;;;;;;13.27;8.63;;;;;;;8.03;79.65;101444.78;5133287;27;20237;-74
2021/12/17 09:33:46;;;;;;;13.45;8.55;;;;;;;8.03;79.81;101444.78;5133847;27;20649;-76
2021/12/17 09:36:14;;;;;;;22.92;14.25;;;;;;;8.00;80.91;101445.69;5133511;27;20219;-73
2021/12/17 09:38:41;;;;;;;13.45;10.15;;;;;;;8.08;80.51;101446.44;5132782;27;20668;-75
2021/12/17 09:41:07;;;;;;;13.80;10.07;;;;;;;8.30;79.41;101444.25;5134102;27;20183;-74
2021/12/17 09:43:36;;;;;;;12.27;9.73;;;;;;;8.17;79.27;101437.34;5134044;27;20192;-74
2021/12/17 09:46:04;;;;;;;11.90;9.93;;;;;;;8.13;79.24;101444.53;5133497;27;20295;-74
2021/12/17 09:48:31;;;;;;;13.07;9.85;;;;;;;8.31;78.58;101447.81;5133616;27;20188;-74
2021/12/17 09:50:59;;;;;;;11.85;8.85;;;;;;;8.33;78.77;101449.53;5133184;27;20204;-73
2021/12/17 09:53:26;;;;;;;14.38;11.88;;;;;;;8.33;78.63;101454.91;5133018;27;20201;-74
2021/12/17 09:55:52;;;;;;;11.88;9.60;;;;;;;8.25;78.58;101446.09;5133297;27;20220;-74
2021/12/17 09:58:19;;;;;;;15.55;9.38;;;;;;;8.30;78.91;101441.56;5132552;27;20247;-73
2021/12/17 10:00:46;;;;;;;14.05;10.02;;;;;;;8.47;77.81;101446.59;5132577;27;20334;-74
2021/12/17 10:03:12;;;;;;;13.80;10.13;;;;;;;8.42;77.77;101444.94;5133748;27;20193;-74
2021/12/17 10:05:41;;;;;;;12.35;10.52;;;;;;;8.47;77.45;101441.25;5133761;27;20195;-75
2021/12/17 10:08:12;;;;;;;16.73;11.68;;;;;;;8.52;77.67;101446.50;5133462;27;20195;-74
2021/12/17 10:10:44;;;;;;;14.88;9.75;;;;;;;8.62;76.84;101447.25;5133273;27;20186;-75
2021/12/17 10:13:13;;;;;;;12.32;9.95;;;;;;;8.60;76.67;101458.00;5133359;27;20186;-73
2021/12/17 10:15:41;;;;;;;19.58;11.93;;;;;;;8.60;76.86;101458.00;5133278;27;20290;-75
2021/12/17 10:18:08;;;;;;;13.90;10.40;;;;;;;8.63;76.53;101457.03;5132710;27;20547;-75
2021/12/17 10:20:40;;;;;;;13.05;10.00;;;;;;;8.65;76.19;101457.91;5132960;27;20192;-73
2021/12/17 10:23:12;;;;;;;13.85;10.95;;;;;;;8.73;75.83;101454.16;5116043;27;20638;-73
2021/12/17 10:25:42;;;;;;;16.55;10.65;;;;;;;8.83;76.02;101454.84;5112593;28;20212;-75
2021/12/17 10:28:09;;;;;;;11.25;10.02;;;;;;;8.96;75.09;101450.09;5112333;28;20194;-74
2021/12/17 10:30:37;;;;;;;10.90;9.18;;;;;;;9.04;74.48;101449.91;5113767;28;20237;-74
2021/12/17 10:33:07;;;;;;;14.82;9.70;;;;;;;8.96;74.98;101458.16;5132245;27;20192;-73
2021/12/17 10:35:35;;;;;;;10.07;9.05;;;;;;;9.00;74.37;101450.88;5130945;27;20293;-74
2021/12/17 10:38:05;;;;;;;10.45;8.70;;;;;;;9.05;73.54;101454.38;5132234;27;20205;-74
2021/12/17 10:40:38;;;;;;;11.60;9.85;;;;;;;9.13;73.03;101455.06;5132482;27;20210;-73
2021/12/17 10:43:14;;;;;;;16.02;10.82;;;;;;;9.26;72.62;101469.13;5131231;27;20271;-74
2021/12/17 10:45:45;;;;;;;10.43;9.05;;;;;;;9.27;72.26;101466.41;5132602;27;20193;-73
2021/12/17 10:48:23;;;;;;;13.98;10.10;;;;;;;9.18;72.63;101454.06;5131756;27;20255;-75
2021/12/17 10:50:52;;;;;;;13.68;8.68;;;;;;;9.39;71.74;101459.84;5132554;27;20197;-74
2021/12/17 10:53:23;;;;;;;13.77;9.60;;;;;;;9.29;71.90;101461.84;5132255;27;20228;-76
2021/12/17 10:55:51;;;;;;;11.98;9.75;;;;;;;9.26;72.08;101448.50;5132418;27;20195;-74
2021/12/17 10:58:18;;;;;;;8.85;7.95;;;;;;;9.45;71.01;101448.06;5132317;27;20232;-74
2021/12/17 11:00:51;;;;;;;10.57;8.35;;;;;;;9.47;70.94;101443.53;5132322;27;20549;-74
2021/12/17 11:03:17;;;;;;;13.95;10.30;;;;;;;9.44;71.15;101446.31;5132294;27;20187;-74
2021/12/17 11:05:44;;;;;;;10.30;9.10;;;;;;;9.33;71.24;101444.75;5131991;27;20223;-74
2021/12/17 11:08:24;;;;;;;11.02;8.65;;;;;;;9.27;71.11;101444.00;5132102;27;20225;-74
2021/12/17 11:10:57;;;;;;;12.90;9.27;;;;;;;9.22;71.82;101435.16;5111513;28;20237;-74
2021/12/17 11:13:25;;;;;;;11.55;8.98;;;;;;;9.09;71.99;101431.88;5111179;28;20241;-73
2021/12/17 11:15:52;;;;;;;9.95;8.05;;;;;;;9.16;71.50;101426.34;5111993;28;20522;-75
2021/12/17 11:18:19;;;;;;;13.45;8.32;;;;;;;9.34;71.08;101419.63;5111150;28;20212;-74
2021/12/17 11:20:47;;;;;;;10.82;8.65;;;;;;;9.58;70.38;101422.63;5120535;27;20187;-74
2021/12/17 11:23:16;;;;;;;11.38;8.25;;;;;;;9.59;69.78;101429.81;5131987;27;20201;-74
2021/12/17 11:25:44;;;;;;;9.07;8.10;;;;;;;9.75;68.82;101423.09;5131677;27;20240;-74
2021/12/17 11:28:13;;;;;;;11.13;9.00;;;;;;;9.79;68.98;101415.81;5131799;27;20294;-74
2021/12/17 11:30:44;;;;;;;12.90;10.35;;;;;;;9.84;68.72;101416.59;5131219;27;20227;-74
2021/12/17 11:33:12;;;;;;;9.02;8.02;;;;;;;10.11;67.87;101417.66;5131136;27;20202;-74
2021/12/17 11:35:42;;;;;;;8.75;7.85;;;;;;;9.98;67.79;101416.22;5130165;27;20717;-74
2021/12/17 11:38:13;;;;;;;9.30;8.27;;;;;;;9.75;68.69;101417.72;5131317;27;20594;-74
2021/12/17 11:40:46;;;;;;;10.05;8.15;;;;;;;9.36;69.44;101417.81;5131112;28;20227;-75
2021/12/17 11:43:51;;;;;;;8.73;7.05;;;;;;;9.34;70.08;101425.03;5125536;27;20191;-75
2021/12/17 11:46:22;;;;;;;9.27;8.10;;;;;;;9.32;70.41;101417.91;5129660;28;20183;-75
2021/12/17 11:48:52;;;;;;;9.48;8.15;;;;;;;9.67;69.31;101408.94;5129772;28;20176;-75
2021/12/17 11:51:23;;;;;;;9.32;7.95;;;;;;;9.80;68.54;101413.09;5131613;28;20184;-73
2021/12/17 11:54:07;;;;;;;9.10;7.00;;;;;;;9.64;68.88;101411.72;5130921;28;20197;-73
2021/12/17 11:56:44;;;;;;;9.02;6.93;;;;;;;9.45;68.90;101405.03;5133491;27;20287;-73
2021/12/17 11:59:33;;;;;;;9.40;8.25;;;;;;;9.41;69.31;101412.31;5139864;27;20658;-74
2021/12/17 12:02:03;;;;;;;15.07;7.25;;;;;;;9.50;69.43;101408.50;5110767;28;20188;-73
2021/12/17 12:04:47;;;;;;;8.05;6.78;;;;;;;9.31;69.85;101408.94;5110987;28;20215;-73
2021/12/17 12:07:16;;;;;;;7.18;6.47;;;;;;;9.26;70.04;101410.84;5114609;28;20192;-73
2021/12/17 12:10:00;;;;;;;13.65;10.10;;;;;;;9.46;69.72;101406.81;5130777;28;20195;-73
2021/12/17 12:12:30;;;;;;;9.75;6.75;;;;;;;9.63;68.41;101407.25;5131452;28;20305;-73
2021/12/17 12:15:31;;;;;;;10.70;9.60;;;;;;;9.83;67.35;101414.81;5131183;28;20205;-74
2021/12/17 12:18:09;;;;;;;7.93;6.25;;;;;;;9.98;67.11;101403.66;5131341;28;20187;-74
2021/12/17 12:21:06;;;;;;;9.35;6.82;;;;;;;10.08;66.67;101398.91;5130075;28;20298;-74
2021/12/17 12:23:52;;;;;;;8.98;6.60;;;;;;;10.00;65.80;101411.69;5130717;28;20195;-74
2021/12/17 12:26:22;;;;;;;10.23;7.20;;;;;;;10.08;65.90;101404.28;5130488;28;20197;-74
2021/12/17 12:28:53;;;;;;;7.63;6.68;;;;;;;10.10;65.70;101410.50;5130665;28;20944;-75
2021/12/17 12:31:59;;;;;;;8.10;6.22;;;;;;;9.97;66.51;101409.97;5131141;28;20223;-75
2021/12/17 12:34:36;;;;;;;9.52;7.53;;;;;;;10.14;65.84;101412.19;5047240;28;20236;-74
2021/12/17 12:37:09;;;;;;;8.38;6.20;;;;;;;10.04;65.48;101416.09;5045422;28;20721;-73
2021/12/17 12:39:38;;;;;;;9.52;6.40;;;;;;;10.08;65.80;101411.47;5098359;27;20299;-74
2021/12/17 12:42:07;;;;;;;15.10;10.57;;;;;;;10.01;66.29;101413.44;5130446;27;20294;-73
2021/12/17 12:45:08;;;;;;;9.40;7.68;;;;;;;10.11;66.15;101414.97;5110621;28;20188;-73
2021/12/17 12:47:51;;;;;;;8.65;6.60;;;;;;;10.07;65.74;101410.59;5114617;28;20282;-73
2021/12/17 12:50:19;;;;;;;8.05;7.13;;;;;;;9.92;66.14;101400.25;5130354;28;20188;-74
2021/12/17 12:52:47;;;;;;;12.25;7.75;;;;;;;10.01;66.61;101402.69;5130871;28;20279;-75
2021/12/17 12:55:18;;;;;;;9.82;6.82;;;;;;;10.06;66.09;101394.47;5133164;27;20199;-73
2021/12/17 12:57:47;;;;;;;11.15;7.30;;;;;;;10.06;65.98;101403.44;5134845;27;20566;-75
2021/12/17 13:00:17;;;;;;;9.45;7.95;;;;;;;10.04;66.18;101402.63;5134685;27;20207;-74
2021/12/17 13:02:49;;;;;;;7.95;6.00;;;;;;;10.07;65.83;101399.84;5134323;27;20197;-74
2021/12/17 13:05:16;;;;;;;9.23;6.53;;;;;;;9.93;66.47;101396.66;5134586;27;20593;-74
2021/12/17 13:07:44;;;;;;;11.55;8.07;;;;;;;9.98;66.83;101390.19;5134282;27;21052;-74
2021/12/17 13:10:14;;;;;;;8.50;6.35;;;;;;;9.94;66.79;101388.50;5133892;27;20623;-74
2021/12/17 13:12:47;;;;;;;12.80;9.25;;;;;;;9.94;67.17;101396.59;5141293;27;20282;-75
2021/12/17 13:15:32;;;;;;;14.27;7.50;;;;;;;10.13;67.11;101388.00;5143827;27;20282;-75
2021/12/17 13:21:05;;;;;;;9.57;7.18;;;;;;;10.41;65.62;101393.53;5070029;28;20228;-74
2021/12/17 13:23:37;;;;;;;9.00;6.35;;;;;;;10.43;65.54;101389.00;5130081;27;20237;-74
2021/12/17 13:26:09;;;;;;;10.35;7.68;;;;;;;10.70;65.12;101387.28;5144170;27;20206;-74
2021/12/17 13:28:52;;;;;;;9.68;6.50;;;;;;;10.74;64.41;101380.88;5142054;27;20203;-74
2021/12/17 13:31:45;;;;;;;8.43;6.97;;;;;;;10.89;63.67;101376.81;5142047;27;20295;-74
2021/12/17 13:34:21;;;;;;;9.18;8.05;;;;;;;10.82;63.33;101372.56;5114443;27;20207;-74
2021/12/17 13:37:07;;;;;;;9.93;6.53;;;;;;;10.90;63.04;101378.59;5133056;27;20193;-74
2021/12/17 13:39:36;;;;;;;9.02;7.70;;;;;;;10.87;62.90;101381.38;5133274;27;20275;-74
2021/12/17 13:42:05;;;;;;;10.00;8.15;;;;;;;10.94;62.72;101373.97;5133941;27;20275;-74
2021/12/17 13:44:37;;;;;;;10.30;8.30;;;;;;;11.17;62.30;101366.06;5141417;27;20183;-74
2021/12/17 13:47:19;;;;;;;7.45;6.05;;;;;;;11.21;61.49;101370.38;5137555;27;20202;-74
2021/12/17 13:49:50;;;;;;;8.57;7.65;;;;;;;11.38;61.25;101363.59;5133468;27;20179;-74
2021/12/17 13:52:18;;;;;;;9.13;7.63;;;;;;;11.27;61.28;101370.19;5133629;27;20183;-74
2021/12/17 13:54:49;;;;;;;8.82;7.93;;;;;;;11.43;60.97;101359.78;5133241;27;20720;-73
2021/12/17 13:57:17;;;;;;;9.75;7.20;;;;;;;11.52;60.65;101368.50;5134260;27;20206;-74
2021/12/17 13:59:45;;;;;;;8.50;7.55;;;;;;;11.65;60.01;101364.47;5134252;27;20208;-74
2021/12/17 14:02:14;;;;;;;14.02;8.60;;;;;;;11.31;60.96;101365.59;5132179;27;20228;-73
2021/12/17 14:04:41;;;;;;;9.55;8.30;;;;;;;11.35;61.06;101367.28;5132347;27;20182;-73
2021/12/17 14:07:11;;;;;;;11.88;7.50;;;;;;;11.19;61.52;101365.97;5133192;27;20297;-74
2021/12/17 14:09:38;;;;;;;14.10;9.05;;;;;;;11.37;61.66;101364.50;5133244;27;20179;-73